Time;durP1;ratioP1;P1;durP2;ratioP2;P2;SDS_P1;SDS_P2;PMS_P1;PMS_P2;Temp;Humidity;BMP_temperature;BMP_pressure;BME280_temperature;BME280_humidity;BME280_pressure;Samples;Min_cycle;Max_cycle;Signal;HPM_P1;HPM_P2
2022/07/04 00:00:20;;;;;;;4.13;1.63;;;22.50;69.30;;;;;;5058596;28;20016;-83
2022/07/04 00:02:47;;;;;;;4.65;2.00;;;22.50;69.00;;;;;;5081917;28;20369;-84
2022/07/04 00:05:13;;;;;;;2.97;2.30;;;22.60;69.00;;;;;;5081562;28;20086;-81
2022/07/04 00:07:45;;;;;;;1.75;1.42;;;22.70;68.90;;;;;;5064621;28;20493;-83
2022/07/04 00:10:12;;;;;;;2.92;1.55;;;22.70;68.60;;;;;;5060350;28;20079;-82
2022/07/04 00:12:38;;;;;;;3.05;1.48;;;22.70;68.90;;;;;;5061960;28;20060;-83
2022/07/04 00:15:05;;;;;;;2.58;1.52;;;22.80;69.20;;;;;;5060387;28;20025;-82
2022/07/04 00:17:31;;;;;;;3.92;1.73;;;22.80;70.00;;;;;;5060080;28;20045;-83
2022/07/04 00:19:57;;;;;;;4.10;1.85;;;22.80;70.80;;;;;;5062238;28;20028;-81
2022/07/04 00:22:22;;;;;;;2.33;2.05;;;22.70;72.10;;;;;;5060516;28;20032;-82
2022/07/04 00:24:48;;;;;;;1.58;1.40;;;22.50;73.20;;;;;;5059649;28;20111;-82
2022/07/04 00:27:14;;;;;;;2.42;1.30;;;22.40;73.70;;;;;;5057360;28;20029;-82
2022/07/04 00:29:39;;;;;;;4.10;1.50;;;22.40;74.20;;;;;;5071955;28;20501;-82
2022/07/04 00:32:05;;;;;;;4.38;1.73;;;22.30;75.00;;;;;;5080581;28;20072;-83
2022/07/04 00:34:31;;;;;;;2.25;1.63;;;22.30;75.50;;;;;;5078480;28;20021;-83
2022/07/04 00:36:57;;;;;;;2.50;1.52;;;22.20;75.80;;;;;;5079237;28;20016;-82
2022/07/04 00:39:23;;;;;;;2.78;1.40;;;22.20;76.10;;;;;;5059983;28;20017;-82
2022/07/04 00:41:48;;;;;;;2.83;1.80;;;22.10;76.50;;;;;;5061372;28;20047;-83
2022/07/04 00:44:17;;;;;;;1.98;1.60;;;22.10;76.90;;;;;;5062573;28;20076;-83
2022/07/04 00:46:44;;;;;;;3.78;1.42;;;22.00;76.90;;;;;;5062528;28;20029;-83
2022/07/04 00:49:11;;;;;;;2.35;1.33;;;22.00;77.20;;;;;;5042356;28;20022;-82
2022/07/04 00:51:38;;;;;;;2.60;1.60;;;21.90;77.10;;;;;;5039832;28;20045;-83
2022/07/04 00:54:06;;;;;;;1.40;1.00;;;21.80;77.60;;;;;;5044550;28;20033;-82
2022/07/04 00:56:31;;;;;;;1.40;1.30;;;21.80;77.20;;;;;;5048294;28;20022;-82
2022/07/04 00:58:58;;;;;;;5.00;1.48;;;21.80;77.90;;;;;;5074469;28;20017;-83
2022/07/04 01:01:25;;;;;;;1.35;1.25;;;21.80;78.50;;;;;;5063726;28;20528;-82
2022/07/04 01:03:51;;;;;;;2.83;1.30;;;21.80;79.40;;;;;;5059607;28;20033;-82
2022/07/04 01:06:20;;;;;;;2.10;1.30;;;21.70;80.10;;;;;;5054876;28;20470;-82
2022/07/04 01:08:46;;;;;;;4.88;1.50;;;21.60;80.40;;;;;;5039582;28;20021;-83
2022/07/04 01:11:12;;;;;;;1.83;1.42;;;21.60;80.90;;;;;;5040346;28;20025;-82
2022/07/04 01:13:40;;;;;;;2.28;1.15;;;21.60;80.60;;;;;;5038374;28;20048;-82
2022/07/04 01:16:07;;;;;;;1.60;1.50;;;21.50;80.70;;;;;;5039124;28;20026;-83
2022/07/04 01:18:33;;;;;;;2.88;1.52;;;21.40;80.40;;;;;;5059512;28;20367;-82
2022/07/04 01:20:59;;;;;;;1.40;1.30;;;21.40;81.40;;;;;;5076824;28;20056;-83
2022/07/04 01:23:25;;;;;;;1.20;1.15;;;21.30;82.00;;;;;;5066018;28;20029;-83
2022/07/04 01:25:50;;;;;;;1.30;1.20;;;21.30;82.10;;;;;;5074605;28;20021;-82
2022/07/04 01:28:18;;;;;;;2.45;1.17;;;21.30;82.30;;;;;;5070201;28;20040;-82
2022/07/04 01:30:44;;;;;;;2.72;1.38;;;21.30;83.00;;;;;;5060287;28;20033;-83
2022/07/04 01:33:10;;;;;;;1.73;1.63;;;21.20;82.40;;;;;;5058581;28;20039;-82
2022/07/04 01:35:35;;;;;;;2.25;1.52;;;21.20;82.50;;;;;;5059384;28;20025;-83
2022/07/04 01:38:01;;;;;;;1.27;1.27;;;21.20;83.00;;;;;;5061050;28;20075;-83
2022/07/04 01:40:27;;;;;;;1.50;1.25;;;21.20;83.00;;;;;;5062511;28;20102;-83
2022/07/04 01:42:53;;;;;;;1.33;1.23;;;21.20;83.30;;;;;;5059525;28;20021;-83
2022/07/04 01:45:19;;;;;;;1.20;1.10;;;21.20;83.70;;;;;;5056416;28;20112;-83
2022/07/04 01:47:44;;;;;;;1.50;1.40;;;21.20;83.80;;;;;;5059205;28;20029;-83
2022/07/04 01:50:12;;;;;;;1.27;1.15;;;21.20;84.20;;;;;;5037891;28;20052;-82
2022/07/04 01:52:38;;;;;;;2.00;1.55;;;21.20;83.90;;;;;;5036030;28;20036;-83
2022/07/04 01:55:05;;;;;;;1.23;1.23;;;21.30;83.80;;;;;;5040879;28;20521;-82
2022/07/04 01:57:30;;;;;;;1.60;1.50;;;21.20;83.50;;;;;;5048295;28;20029;-83
2022/07/04 02:02:40;;;;;;;1.45;1.35;;;21.30;82.20;;;;;;5077277;28;20523;-83
2022/07/04 02:05:06;;;;;;;1.50;1.40;;;21.40;82.00;;;;;;5076997;28;20029;-83
2022/07/04 02:07:32;;;;;;;1.70;1.30;;;21.30;81.60;;;;;;5078478;28;20028;-83
2022/07/04 02:09:57;;;;;;;1.58;1.30;;;21.30;81.60;;;;;;5058929;28;20024;-83
2022/07/04 02:15:08;;;;;;;2.30;1.45;;;21.30;82.20;;;;;;5059041;28;20032;-83
2022/07/04 02:17:33;;;;;;;1.75;1.40;;;21.30;82.00;;;;;;5058800;28;20462;-82
2022/07/04 02:19:59;;;;;;;2.10;1.70;;;21.30;81.60;;;;;;5058363;28;20155;-83
2022/07/04 02:22:24;;;;;;;1.33;1.23;;;21.30;81.30;;;;;;5054811;28;20029;-83
2022/07/04 02:24:50;;;;;;;1.33;1.23;;;21.30;81.10;;;;;;5037058;28;20104;-84
2022/07/04 02:27:16;;;;;;;2.65;1.48;;;21.30;81.40;;;;;;5054261;28;20461;-83
2022/07/04 02:29:42;;;;;;;2.13;1.60;;;21.30;81.20;;;;;;5065075;28;20478;-82
2022/07/04 02:32:08;;;;;;;3.33;1.30;;;21.30;81.10;;;;;;5043796;28;20029;-83
2022/07/04 02:34:33;;;;;;;1.20;1.20;;;21.30;81.30;;;;;;5036638;28;20368;-82
2022/07/04 02:36:59;;;;;;;1.48;1.38;;;21.30;81.70;;;;;;5035150;28;20024;-83
2022/07/04 02:39:25;;;;;;;1.38;1.27;;;21.30;81.60;;;;;;5041226;28;20024;-83
2022/07/04 02:41:50;;;;;;;1.33;1.23;;;21.20;81.50;;;;;;5037860;28;20018;-83
2022/07/04 02:44:16;;;;;;;1.10;1.10;;;21.30;81.60;;;;;;5051639;28;20386;-83
2022/07/04 02:46:42;;;;;;;2.17;1.80;;;21.20;81.70;;;;;;5037269;28;20036;-83
2022/07/04 02:49:08;;;;;;;1.20;1.08;;;21.20;81.80;;;;;;5035921;28;20545;-83
2022/07/04 02:51:34;;;;;;;1.70;1.52;;;21.20;81.80;;;;;;5043314;28;20085;-83
2022/07/04 02:54:00;;;;;;;1.42;1.23;;;21.20;81.90;;;;;;5037641;28;20041;-84
2022/07/04 02:56:26;;;;;;;2.22;1.40;;;21.20;81.90;;;;;;5038101;28;20418;-83
2022/07/04 02:58:52;;;;;;;1.50;1.40;;;21.10;81.90;;;;;;5068642;28;20059;-84
2022/07/04 03:01:19;;;;;;;1.10;1.10;;;21.10;82.10;;;;;;5054945;28;20025;-83
2022/07/04 03:03:45;;;;;;;1.30;1.20;;;21.10;82.20;;;;;;5038356;28;20037;-82
2022/07/04 03:06:12;;;;;;;1.27;1.23;;;21.00;82.40;;;;;;5037401;28;20033;-83
2022/07/04 03:08:40;;;;;;;1.08;1.08;;;21.00;82.80;;;;;;5041131;28;20079;-82
2022/07/04 03:11:06;;;;;;;1.20;1.20;;;20.90;83.10;;;;;;5049638;28;20108;-83
2022/07/04 03:13:32;;;;;;;2.28;1.23;;;21.00;83.30;;;;;;5062307;28;20080;-83
2022/07/04 03:15:58;;;;;;;1.70;1.40;;;20.90;83.30;;;;;;5073578;28;20009;-81
2022/07/04 03:18:24;;;;;;;1.40;1.30;;;20.90;83.60;;;;;;5094745;28;20048;-81
2022/07/04 03:20:50;;;;;;;1.75;1.52;;;20.90;83.80;;;;;;5074799;28;20101;-82
2022/07/04 03:23:16;;;;;;;1.30;1.20;;;20.80;84.10;;;;;;5043541;28;20030;-82
2022/07/04 03:25:42;;;;;;;1.20;1.20;;;20.80;84.30;;;;;;5041331;28;20033;-82
2022/07/04 03:28:08;;;;;;;1.42;1.33;;;20.80;84.70;;;;;;5056589;28;20020;-82
2022/07/04 03:30:34;;;;;;;1.10;1.10;;;20.70;85.20;;;;;;5072238;28;20385;-82
2022/07/04 03:33:00;;;;;;;1.58;1.48;;;20.70;85.60;;;;;;5063416;28;20397;-82
2022/07/04 03:35:26;;;;;;;1.15;1.15;;;20.70;85.90;;;;;;5058955;28;20021;-82
2022/07/04 03:37:53;;;;;;;1.70;1.60;;;20.70;86.10;;;;;;5059074;28;20358;-82
2022/07/04 03:40:19;;;;;;;1.60;1.50;;;20.60;86.40;;;;;;5061603;28;20075;-82
2022/07/04 03:42:45;;;;;;;1.35;1.27;;;20.60;86.60;;;;;;5060782;28;20024;-82
2022/07/04 03:45:11;;;;;;;2.13;1.42;;;20.60;86.80;;;;;;5060444;28;20029;-82
2022/07/04 03:47:37;;;;;;;1.95;1.75;;;20.60;87.00;;;;;;5060558;28;20093;-82
2022/07/04 03:50:09;;;;;;;1.38;1.23;;;20.50;86.90;;;;;;5059954;28;20024;-82
2022/07/04 03:52:35;;;;;;;2.25;1.60;;;20.60;87.10;;;;;;5050515;28;20100;-83
2022/07/04 03:55:01;;;;;;;1.58;1.48;;;20.70;87.30;;;;;;5042070;28;20151;-82
2022/07/04 03:57:26;;;;;;;1.48;1.38;;;20.70;86.80;;;;;;5046114;28;20449;-83
2022/07/04 03:59:52;;;;;;;4.05;1.52;;;20.80;86.70;;;;;;5073204;28;20414;-84
2022/07/04 04:02:18;;;;;;;1.42;1.33;;;20.90;86.60;;;;;;5081101;28;20016;-82
2022/07/04 04:07:27;;;;;;;2.45;2.25;;;20.90;87.20;;;;;;5061782;28;20059;-81
2022/07/04 04:09:53;;;;;;;1.35;1.27;;;21.00;87.80;;;;;;5061825;28;20033;-84
2022/07/04 04:12:19;;;;;;;2.15;1.33;;;21.00;87.50;;;;;;5061451;28;20026;-82
2022/07/04 04:14:44;;;;;;;1.20;1.10;;;21.10;87.40;;;;;;5041351;28;20028;-81
2022/07/04 04:17:10;;;;;;;1.33;1.23;;;21.00;86.90;;;;;;5042218;28;20038;-81
2022/07/04 04:19:36;;;;;;;2.38;1.90;;;21.10;86.70;;;;;;5043947;28;20037;-81
2022/07/04 04:22:01;;;;;;;1.20;1.20;;;21.10;86.00;;;;;;5048893;28;20032;-80
2022/07/04 04:24:27;;;;;;;1.90;1.38;;;21.10;85.80;;;;;;5084032;28;20024;-79
2022/07/04 04:26:53;;;;;;;1.58;1.33;;;21.10;85.80;;;;;;5099087;28;20028;-79
2022/07/04 04:29:19;;;;;;;2.42;1.20;;;21.10;85.80;;;;;;5077468;28;20059;-79
2022/07/04 04:31:44;;;;;;;1.55;1.45;;;21.20;86.10;;;;;;5077785;28;20025;-83
2022/07/04 04:34:10;;;;;;;2.05;1.25;;;21.20;86.00;;;;;;5070286;28;20033;-79
2022/07/04 04:36:35;;;;;;;1.48;1.27;;;21.30;85.80;;;;;;5073397;28;20039;-81
2022/07/04 04:39:01;;;;;;;1.50;1.40;;;21.30;85.60;;;;;;5063431;28;20021;-82
2022/07/04 04:41:27;;;;;;;1.70;1.20;;;21.30;85.40;;;;;;5055444;28;20480;-82
2022/07/04 04:43:53;;;;;;;1.25;1.15;;;21.30;85.30;;;;;;5049863;28;20037;-81
2022/07/04 04:46:19;;;;;;;1.40;1.30;;;21.30;85.30;;;;;;5039111;28;20036;-79
2022/07/04 04:48:44;;;;;;;1.35;1.25;;;21.40;85.20;;;;;;5043208;28;20099;-82
2022/07/04 04:51:10;;;;;;;1.50;1.40;;;21.50;85.00;;;;;;5048719;28;20494;-83
2022/07/04 04:53:36;;;;;;;1.40;1.30;;;21.70;84.30;;;;;;5057834;28;20029;-83
2022/07/04 04:56:02;;;;;;;1.15;1.15;;;22.10;83.90;;;;;;5073947;28;20032;-81
2022/07/04 04:58:28;;;;;;;1.30;1.30;;;22.30;81.40;;;;;;5062716;28;20044;-83
2022/07/04 05:00:53;;;;;;;1.92;1.52;;;22.40;80.50;;;;;;5073853;28;20080;-82
2022/07/04 05:03:19;;;;;;;1.25;1.15;;;22.30;80.50;;;;;;5078385;28;20025;-82
2022/07/04 05:05:45;;;;;;;1.25;1.15;;;22.20;80.80;;;;;;5055545;28;20084;-83
2022/07/04 05:08:12;;;;;;;1.45;1.33;;;22.10;81.50;;;;;;5047013;28;20032;-81
2022/07/04 05:10:38;;;;;;;2.03;1.10;;;22.10;81.70;;;;;;5039536;28;20025;-83
2022/07/04 05:13:05;;;;;;;1.40;1.23;;;22.10;81.70;;;;;;5055714;28;20053;-82
2022/07/04 05:15:31;;;;;;;1.10;1.10;;;22.00;81.80;;;;;;5040286;28;20033;-79
2022/07/04 05:17:56;;;;;;;2.15;1.38;;;22.00;81.80;;;;;;5064640;28;20096;-81
2022/07/04 05:20:22;;;;;;;2.92;1.17;;;22.00;81.80;;;;;;5051142;28;20029;-83
2022/07/04 05:22:48;;;;;;;1.20;1.10;;;21.90;81.70;;;;;;5057060;28;20029;-84
2022/07/04 05:25:14;;;;;;;4.60;1.42;;;21.90;81.90;;;;;;5056710;28;20103;-83
2022/07/04 05:27:40;;;;;;;1.40;1.30;;;21.90;82.00;;;;;;5069734;28;20020;-82
2022/07/04 05:30:07;;;;;;;2.25;1.63;;;21.80;82.20;;;;;;5081404;28;20024;-82
2022/07/04 05:32:32;;;;;;;3.08;1.80;;;21.80;82.70;;;;;;5083406;28;20134;-82
2022/07/04 05:34:58;;;;;;;4.00;1.63;;;21.80;83.50;;;;;;5067146;28;20048;-82
2022/07/04 05:37:25;;;;;;;2.28;1.58;;;21.80;84.50;;;;;;5065517;28;20025;-84
2022/07/04 05:39:50;;;;;;;1.70;1.60;;;21.80;84.60;;;;;;5046154;28;20021;-80
2022/07/04 05:42:17;;;;;;;2.17;1.98;;;21.80;85.00;;;;;;5055480;28;20469;-80
2022/07/04 05:44:42;;;;;;;1.73;1.55;;;21.90;85.20;;;;;;5044572;28;20018;-82
2022/07/04 05:47:08;;;;;;;1.95;1.60;;;22.00;85.30;;;;;;5048242;28;20018;-82
2022/07/04 05:49:34;;;;;;;1.70;1.60;;;22.00;85.60;;;;;;5048341;28;20093;-80
2022/07/04 05:52:00;;;;;;;4.35;2.00;;;22.10;85.40;;;;;;5066711;28;20033;-83
2022/07/04 05:54:25;;;;;;;2.97;1.85;;;22.20;85.10;;;;;;5065391;28;20044;-84
2022/07/04 05:56:51;;;;;;;3.08;1.60;;;22.20;85.10;;;;;;5052578;28;20480;-83
2022/07/04 05:59:17;;;;;;;3.67;2.00;;;22.30;84.90;;;;;;5074981;28;20013;-81
2022/07/04 06:01:43;;;;;;;4.53;1.88;;;22.20;84.70;;;;;;5073340;28;20021;-81
2022/07/04 06:04:09;;;;;;;2.28;1.70;;;22.30;84.50;;;;;;5066430;28;20044;-80
2022/07/04 06:06:34;;;;;;;1.83;1.63;;;22.30;84.10;;;;;;5049828;28;20498;-80
2022/07/04 06:09:00;;;;;;;2.38;1.50;;;22.40;84.20;;;;;;5067930;28;20021;-79
2022/07/04 06:11:26;;;;;;;1.95;1.35;;;22.50;84.10;;;;;;5072944;28;20088;-81
2022/07/04 06:13:52;;;;;;;2.28;1.67;;;22.60;83.50;;;;;;5054344;28;20383;-82
2022/07/04 06:16:18;;;;;;;1.83;1.73;;;22.60;82.70;;;;;;5047016;28;20029;-82
2022/07/04 06:18:44;;;;;;;2.85;1.90;;;22.60;82.70;;;;;;5078816;28;20072;-82
2022/07/04 06:21:10;;;;;;;4.68;1.40;;;22.60;83.10;;;;;;5050728;28;20023;-83
2022/07/04 06:23:36;;;;;;;4.57;1.60;;;22.50;82.60;;;;;;5052536;28;20033;-82
2022/07/04 06:26:02;;;;;;;2.67;1.75;;;22.40;82.60;;;;;;5049064;28;20037;-82
2022/07/04 06:28:29;;;;;;;1.10;1.10;;;22.40;82.20;;;;;;5057644;28;20035;-81
2022/07/04 06:30:55;;;;;;;1.80;1.40;;;22.30;82.80;;;;;;5063720;28;20045;-81
2022/07/04 06:33:21;;;;;;;3.13;1.40;;;22.20;83.10;;;;;;5065499;28;20128;-82
2022/07/04 06:36:04;;;;;;;2.95;1.27;;;22.20;83.60;;;;;;5041309;28;20021;-82
2022/07/04 06:38:30;;;;;;;3.03;1.35;;;22.20;84.00;;;;;;5064808;28;20033;-82
2022/07/04 06:40:58;;;;;;;2.55;1.25;;;22.20;84.40;;;;;;5050394;28;20025;-81
2022/07/04 06:43:25;;;;;;;2.38;1.20;;;22.10;85.00;;;;;;5057521;28;20025;-82
2022/07/04 06:45:52;;;;;;;2.08;1.70;;;22.10;85.70;;;;;;5043120;28;20036;-83
2022/07/04 06:48:19;;;;;;;2.72;1.30;;;22.10;86.10;;;;;;5042096;28;20025;-82
2022/07/04 06:50:45;;;;;;;3.28;1.70;;;22.00;86.60;;;;;;5055676;28;20093;-81
2022/07/04 06:53:11;;;;;;;6.60;1.70;;;22.10;87.10;;;;;;5051933;28;20051;-82
2022/07/04 06:55:42;;;;;;;3.55;2.13;;;22.00;88.30;;;;;;5062293;28;20158;-81
2022/07/04 06:58:08;;;;;;;1.93;1.40;;;21.90;89.20;;;;;;5082233;28;20016;-82
2022/07/04 07:00:35;;;;;;;2.42;1.55;;;21.80;89.80;;;;;;5050935;28;20036;-82
2022/07/04 07:03:02;;;;;;;1.70;1.30;;;21.80;90.00;;;;;;5044206;28;20021;-82
2022/07/04 07:05:29;;;;;;;3.10;1.30;;;21.90;90.00;;;;;;5061615;28;20040;-82
2022/07/04 07:07:55;;;;;;;1.33;1.23;;;21.90;90.20;;;;;;5061695;28;20024;-79
2022/07/04 07:10:21;;;;;;;1.67;1.48;;;21.90;90.30;;;;;;5071152;28;20029;-82
2022/07/04 07:12:47;;;;;;;3.17;1.75;;;22.00;90.30;;;;;;5053026;28;20033;-82
2022/07/04 07:15:13;;;;;;;2.22;1.20;;;22.10;89.20;;;;;;5057301;28;20032;-81
2022/07/04 07:17:39;;;;;;;2.10;1.55;;;22.00;89.50;;;;;;5055020;28;20025;-82
2022/07/04 07:20:06;;;;;;;1.60;1.50;;;22.00;89.70;;;;;;5056864;28;20036;-81
2022/07/04 07:22:32;;;;;;;1.95;1.60;;;21.90;90.00;;;;;;5040545;28;20056;-80
2022/07/04 07:24:57;;;;;;;6.50;1.85;;;21.90;90.10;;;;;;5056462;28;20041;-83
2022/07/04 07:27:23;;;;;;;1.88;1.77;;;21.90;90.10;;;;;;5043699;28;20033;-81
2022/07/04 07:29:49;;;;;;;2.70;1.52;;;21.80;90.00;;;;;;5053777;28;20112;-80
2022/07/04 07:32:15;;;;;;;1.88;1.77;;;21.80;90.30;;;;;;5059385;28;20044;-81
2022/07/04 07:34:40;;;;;;;2.45;1.80;;;21.80;90.50;;;;;;5046204;28;20057;-81
2022/07/04 07:37:07;;;;;;;1.73;1.60;;;21.70;90.80;;;;;;5045527;28;20041;-81
2022/07/04 07:39:32;;;;;;;3.05;1.58;;;21.70;91.30;;;;;;5054141;28;20069;-80
2022/07/04 07:41:58;;;;;;;2.92;1.55;;;21.70;91.20;;;;;;5050679;28;20025;-80
2022/07/04 07:44:24;;;;;;;2.30;1.60;;;21.70;91.10;;;;;;5051913;28;20030;-79
2022/07/04 07:46:50;;;;;;;2.65;1.73;;;21.80;91.20;;;;;;5044162;28;20036;-81
2022/07/04 07:49:15;;;;;;;2.05;1.50;;;21.90;91.30;;;;;;5040875;28;20041;-80
2022/07/04 07:51:41;;;;;;;2.15;1.60;;;22.10;90.50;;;;;;5057587;28;20478;-79
2022/07/04 07:54:07;;;;;;;3.08;1.33;;;22.30;90.50;;;;;;5059501;28;20044;-80
2022/07/04 07:56:33;;;;;;;1.70;1.50;;;22.60;89.00;;;;;;5079401;28;20100;-81
2022/07/04 07:58:58;;;;;;;4.25;1.70;;;22.70;88.40;;;;;;5077026;28;20377;-82
2022/07/04 08:01:24;;;;;;;1.88;1.50;;;22.90;86.70;;;;;;5072794;28;20037;-82
2022/07/04 08:06:34;;;;;;;3.22;1.50;;;23.40;85.30;;;;;;5068554;28;20145;-79
2022/07/04 08:09:00;;;;;;;3.30;1.73;;;23.60;84.50;;;;;;5056738;28;20470;-80
2022/07/04 08:11:26;;;;;;;4.03;1.40;;;23.70;82.50;;;;;;5050663;28;20441;-80
2022/07/04 08:13:52;;;;;;;2.28;1.40;;;23.70;82.00;;;;;;5062699;28;20037;-79
2022/07/04 08:16:18;;;;;;;1.80;1.50;;;23.70;81.60;;;;;;5052734;28;20037;-80
2022/07/04 08:18:44;;;;;;;1.35;1.23;;;23.90;81.00;;;;;;5059953;28;20040;-79
2022/07/04 08:21:10;;;;;;;1.70;1.42;;;24.10;80.30;;;;;;5064290;28;20029;-78
2022/07/04 08:23:36;;;;;;;2.97;2.33;;;24.40;79.60;;;;;;5059472;28;20032;-79
2022/07/04 08:26:03;;;;;;;2.60;1.48;;;24.60;77.70;;;;;;5041844;28;20033;-80
2022/07/04 08:28:29;;;;;;;1.67;1.35;;;24.90;76.20;;;;;;5063404;28;20024;-77
2022/07/04 08:30:56;;;;;;;1.38;1.17;;;25.10;75.40;;;;;;5070115;28;20078;-79
2022/07/04 08:33:22;;;;;;;1.48;1.33;;;25.20;74.60;;;;;;5047688;28;20064;-80
2022/07/04 08:35:48;;;;;;;3.08;1.50;;;25.40;74.00;;;;;;5058172;28;20059;-78
2022/07/04 08:38:15;;;;;;;4.13;1.40;;;25.40;72.70;;;;;;5046574;28;20469;-78
2022/07/04 08:40:41;;;;;;;3.92;1.50;;;25.30;71.90;;;;;;5063047;28;20032;-79
2022/07/04 08:43:11;;;;;;;2.28;1.45;;;25.20;72.80;;;;;;5061136;28;20100;-80
2022/07/04 08:45:37;;;;;;;2.15;1.83;;;25.10;74.40;;;;;;5049816;28;20025;-79
2022/07/04 08:48:06;;;;;;;4.55;2.05;;;25.10;74.00;;;;;;5058094;28;20083;-79
2022/07/04 08:50:43;;;;;;;1.83;1.40;;;25.00;73.50;;;;;;5059705;28;20031;-78
2022/07/04 08:53:19;;;;;;;4.25;2.15;;;24.90;73.80;;;;;;5050830;28;20041;-78
2022/07/04 08:58:44;;;;;;;2.28;1.42;;;24.70;73.40;;;;;;5058476;28;20043;-78
2022/07/04 09:01:14;;;;;;;1.37;1.27;;;24.80;72.80;;;;;;5066906;28;20105;-81
2022/07/04 09:03:42;;;;;;;6.45;1.48;;;24.80;72.60;;;;;;5053747;28;20271;-79
2022/07/04 09:06:19;;;;;;;2.08;1.27;;;24.80;71.10;;;;;;5069344;28;20045;-78
2022/07/04 09:08:49;;;;;;;1.20;1.10;;;24.80;71.60;;;;;;5065029;28;20037;-80
2022/07/04 09:11:15;;;;;;;1.48;1.20;;;24.90;70.70;;;;;;5061827;28;20048;-79
2022/07/04 09:13:40;;;;;;;2.05;1.67;;;25.20;70.60;;;;;;5048631;28;20537;-81
2022/07/04 09:16:06;;;;;;;3.63;1.48;;;25.50;69.60;;;;;;5043672;28;20037;-84
2022/07/04 09:18:35;;;;;;;2.65;1.20;;;25.70;68.20;;;;;;5060211;28;20029;-80
2022/07/04 09:21:10;;;;;;;3.05;1.35;;;25.80;66.90;;;;;;5054267;28;20226;-82
2022/07/04 09:23:41;;;;;;;4.03;1.77;;;26.00;66.40;;;;;;5055122;28;20068;-82
2022/07/04 09:26:10;;;;;;;1.60;1.17;;;26.20;65.80;;;;;;5057761;28;20025;-80
2022/07/04 09:28:39;;;;;;;1.70;1.60;;;26.40;64.00;;;;;;5052923;28;20060;-80
2022/07/04 09:31:21;;;;;;;2.28;1.25;;;26.60;63.20;;;;;;5064129;28;20045;-80
2022/07/04 09:33:57;;;;;;;1.17;1.17;;;26.80;62.80;;;;;;5045076;28;20414;-80
2022/07/04 09:36:25;;;;;;;1.77;1.30;;;26.90;63.10;;;;;;5051402;28;20116;-81
2022/07/04 09:39:14;;;;;;;2.08;1.00;;;27.00;62.60;;;;;;5050131;28;20128;-81
2022/07/04 09:41:58;;;;;;;5.38;2.00;;;27.10;61.90;;;;;;5055046;28;20029;-80
2022/07/04 09:44:27;;;;;;;2.45;1.33;;;27.30;60.70;;;;;;5058720;28;20025;-81
2022/07/04 09:46:52;;;;;;;1.90;1.70;;;27.60;59.80;;;;;;5065369;28;20081;-81
2022/07/04 09:49:21;;;;;;;2.95;1.70;;;27.70;59.60;;;;;;5064104;28;20040;-80
2022/07/04 09:51:49;;;;;;;1.80;1.35;;;27.70;59.60;;;;;;5060987;28;20021;-81
2022/07/04 09:54:34;;;;;;;1.42;1.33;;;27.70;59.70;;;;;;5056379;28;20033;-80
2022/07/04 09:57:02;;;;;;;1.85;1.10;;;27.80;59.50;;;;;;5066015;28;20021;-80
2022/07/04 09:59:29;;;;;;;1.50;1.27;;;27.90;59.60;;;;;;5057564;28;20407;-79
2022/07/04 10:02:10;;;;;;;1.40;1.10;;;27.80;58.80;;;;;;5063025;28;20085;-79
2022/07/04 10:04:43;;;;;;;2.67;1.40;;;27.60;58.60;;;;;;5063555;28;20033;-80
2022/07/04 10:07:09;;;;;;;2.65;1.45;;;27.50;58.20;;;;;;5064694;28;20049;-80
2022/07/04 10:09:38;;;;;;;1.38;1.10;;;27.60;58.10;;;;;;5068950;28;20026;-79
2022/07/04 10:12:11;;;;;;;1.45;1.33;;;27.80;57.90;;;;;;5046427;28;20034;-80
2022/07/04 10:14:42;;;;;;;1.38;1.27;;;28.00;57.30;;;;;;5048308;28;20032;-79
2022/07/04 10:17:08;;;;;;;3.00;1.35;;;28.20;57.40;;;;;;5048067;28;20060;-79
2022/07/04 10:19:35;;;;;;;1.85;1.30;;;28.20;57.60;;;;;;5063464;28;20025;-80
2022/07/04 10:22:02;;;;;;;1.30;1.20;;;28.40;57.70;;;;;;5067980;28;20013;-79
2022/07/04 10:24:31;;;;;;;1.20;1.15;;;28.50;57.00;;;;;;5065777;28;20040;-82
2022/07/04 10:26:57;;;;;;;1.70;1.50;;;28.70;56.50;;;;;;5062615;28;20009;-78
2022/07/04 10:29:26;;;;;;;1.40;1.30;;;29.00;55.70;;;;;;5067575;28;20024;-79
2022/07/04 10:31:53;;;;;;;3.88;1.40;;;29.00;55.60;;;;;;5055435;28;20103;-78
2022/07/04 10:34:25;;;;;;;1.20;1.08;;;28.90;55.80;;;;;;5048764;28;20501;-82
2022/07/04 10:36:54;;;;;;;1.33;1.02;;;28.70;53.80;;;;;;5061877;28;20024;-81
2022/07/04 10:39:24;;;;;;;1.65;1.17;;;28.50;54.50;;;;;;5056865;28;20021;-80
2022/07/04 10:42:06;;;;;;;1.10;1.00;;;28.50;54.80;;;;;;5045399;28;20017;-80
2022/07/04 10:44:43;;;;;;;1.92;1.20;;;28.70;54.60;;;;;;5055941;28;20025;-82
2022/07/04 10:47:27;;;;;;;1.70;1.27;;;28.90;53.70;;;;;;5059902;28;20193;-81
2022/07/04 10:49:56;;;;;;;1.58;1.20;;;28.80;53.80;;;;;;5040766;28;20029;-81
2022/07/04 10:52:25;;;;;;;1.50;1.40;;;28.80;54.40;;;;;;5052458;28;20120;-79
2022/07/04 10:54:51;;;;;;;1.48;1.38;;;28.80;54.50;;;;;;5054518;28;20035;-83
2022/07/04 10:57:20;;;;;;;1.98;1.20;;;28.90;54.60;;;;;;5059357;28;20091;-81
2022/07/04 10:59:56;;;;;;;2.58;1.60;;;28.80;54.20;;;;;;5072891;28;20052;-79
2022/07/04 11:02:24;;;;;;;1.27;1.02;;;28.70;54.40;;;;;;5049787;28;20075;-80
2022/07/04 11:05:02;;;;;;;1.77;1.50;;;28.70;54.80;;;;;;5055044;28;20079;-78
2022/07/04 11:07:40;;;;;;;1.48;1.38;;;28.60;54.40;;;;;;5053351;28;20108;-82
2022/07/04 11:10:12;;;;;;;0.95;0.95;;;28.70;54.50;;;;;;5051719;28;20509;-80
2022/07/04 11:13:00;;;;;;;2.17;1.27;;;28.80;54.30;;;;;;5050584;28;20037;-79
2022/07/04 11:15:31;;;;;;;2.38;1.65;;;28.90;54.40;;;;;;5042718;28;20152;-82
2022/07/04 11:18:10;;;;;;;1.27;1.20;;;28.90;53.60;;;;;;5047962;28;20029;-81
2022/07/04 11:20:39;;;;;;;1.52;1.08;;;29.00;53.60;;;;;;5051520;28;20123;-79
2022/07/04 11:23:08;;;;;;;3.05;1.42;;;29.10;53.50;;;;;;5045310;28;20085;-79
2022/07/04 11:25:35;;;;;;;1.52;1.40;;;29.30;53.70;;;;;;5060785;28;20459;-79
2022/07/04 11:28:20;;;;;;;1.45;1.35;;;29.50;53.70;;;;;;5058432;28;20022;-80
2022/07/04 11:30:55;;;;;;;1.63;1.45;;;29.70;53.30;;;;;;5051163;28;20040;-80
2022/07/04 11:33:26;;;;;;;2.38;2.15;;;29.70;53.70;;;;;;5053334;28;20037;-82
2022/07/04 11:36:20;;;;;;;2.13;1.63;;;29.90;53.50;;;;;;5061620;28;20059;-81
2022/07/04 11:38:57;;;;;;;2.38;2.08;;;30.00;52.60;;;;;;5058901;28;20535;-82
2022/07/04 11:47:08;;;;;;;6.70;2.33;;;30.00;52.00;;;;;;5060591;28;20036;-82
2022/07/04 11:49:43;;;;;;;1.98;1.75;;;29.80;51.40;;;;;;5047674;28;20148;-81
2022/07/04 11:52:12;;;;;;;1.90;1.48;;;29.70;50.30;;;;;;5048896;28;20034;-81
2022/07/04 11:54:44;;;;;;;1.65;1.52;;;29.70;50.40;;;;;;5050445;28;20033;-80
2022/07/04 11:57:16;;;;;;;1.40;1.30;;;29.80;50.30;;;;;;5055076;28;20077;-79
2022/07/04 11:59:43;;;;;;;1.40;1.30;;;30.10;49.60;;;;;;5049583;28;20014;-81
2022/07/04 12:02:18;;;;;;;1.92;1.40;;;30.30;49.60;;;;;;5050304;28;20071;-81
2022/07/04 12:04:49;;;;;;;2.50;1.50;;;30.20;49.70;;;;;;5079351;28;20032;-81
2022/07/04 12:07:17;;;;;;;2.88;1.73;;;30.20;49.60;;;;;;5048761;28;20075;-82
2022/07/04 12:09:51;;;;;;;1.63;1.38;;;30.30;49.90;;;;;;5056546;28;20033;-82
2022/07/04 12:12:17;;;;;;;3.30;1.70;;;30.30;49.20;;;;;;5059686;28;20126;-82
2022/07/04 12:15:07;;;;;;;1.30;1.13;;;30.20;49.60;;;;;;5045407;28;20017;-82
2022/07/04 12:17:35;;;;;;;4.07;1.50;;;30.20;49.30;;;;;;5052495;28;20028;-82
2022/07/04 12:20:12;;;;;;;4.97;1.65;;;30.00;50.20;;;;;;5065628;28;20094;-80
2022/07/04 12:22:44;;;;;;;1.50;1.40;;;29.80;51.00;;;;;;5050849;28;20104;-80
2022/07/04 12:25:45;;;;;;;2.78;1.52;;;29.80;50.40;;;;;;5078472;28;20060;-81
2022/07/04 12:28:22;;;;;;;3.22;1.40;;;29.80;51.00;;;;;;5057402;28;20355;-80
2022/07/04 12:30:57;;;;;;;2.22;1.50;;;29.90;50.80;;;;;;5060458;28;20021;-82
2022/07/04 12:33:25;;;;;;;1.30;1.20;;;30.00;51.00;;;;;;5075466;28;20155;-83
2022/07/04 12:35:59;;;;;;;1.50;1.40;;;30.10;50.70;;;;;;5058325;28;20028;-83
2022/07/04 12:38:27;;;;;;;1.45;1.20;;;30.10;50.90;;;;;;5060276;28;20025;-83
2022/07/04 12:41:07;;;;;;;2.97;1.33;;;30.10;50.90;;;;;;5060741;28;20502;-83
2022/07/04 12:43:39;;;;;;;1.67;1.38;;;30.10;51.00;;;;;;5053353;28;20032;-84
2022/07/04 12:46:05;;;;;;;1.63;1.10;;;30.10;51.40;;;;;;5060927;28;20025;-83
2022/07/04 12:48:31;;;;;;;1.60;1.50;;;30.10;50.30;;;;;;5046547;28;20037;-83
2022/07/04 12:51:12;;;;;;;2.33;1.30;;;30.20;50.10;;;;;;5043602;28;20109;-83
2022/07/04 12:53:40;;;;;;;2.70;1.55;;;30.20;49.70;;;;;;5044519;28;20053;-84
2022/07/04 12:56:07;;;;;;;1.45;1.30;;;30.20;50.40;;;;;;5045732;28;20056;-82
2022/07/04 12:58:32;;;;;;;1.60;1.50;;;30.10;51.30;;;;;;5063004;28;20019;-83
2022/07/04 13:00:58;;;;;;;3.72;1.63;;;30.10;51.70;;;;;;5070612;28;20013;-83
2022/07/04 13:03:24;;;;;;;4.03;1.50;;;30.10;50.10;;;;;;5074990;28;20040;-84
2022/07/04 13:05:49;;;;;;;1.20;1.10;;;29.80;50.30;;;;;;5080837;28;20044;-82
2022/07/04 13:08:15;;;;;;;1.50;1.38;;;29.60;50.60;;;;;;5065288;28;20025;-84
2022/07/04 13:10:42;;;;;;;1.42;1.30;;;29.40;51.70;;;;;;5079280;22;20068;-85